METAR Data
IDs: Format: Raw Decoded Include TAF

Data at: 1313 UTC 23 Mar 2019

METAR for:KHSE (Hatteras/Mitchell Fl, NC, US)
Text:KHSE 231251Z AUTO 31012G20KT 10SM CLR 09/M01 A3013 RMK AO2 SLP202 T00941011 $
Temperature: 9.4°C ( 49°F)
Dewpoint: -1.1°C ( 30°F) [RH = 48%]
Pressure (altimeter):30.13 inches Hg (1020.4 mb) [Sea level pressure: 1020.2 mb]
Winds:from the NW (310 degrees) at 14 MPH (12 knots; 6.2 m/s) gusting to 23 MPH (20 knots; 10.3 m/s)
Visibility:10 or more sm (16+ km)
Ceiling:at least 12,000 feet AGL
Clouds:sky clear below 12,000 feet AGL
QC Flag:automated observation with no human augmentation; SOME DATA ABOVE MAY BE INACCURATE!!!"$" is an indication the sensor requires maintenance.
Text:KHSE 231151Z AUTO 31012G22KT 10SM CLR 09/M02 A3009 RMK AO2 SLP190 7//// T00941017 10100 20083 53027 $
Temperature: 9.4°C ( 49°F)
Dewpoint: -1.7°C ( 29°F) [RH = 46%]
Pressure (altimeter):30.09 inches Hg (1019.0 mb) [Sea level pressure: 1019.0 mb]
Winds:from the NW (310 degrees) at 14 MPH (12 knots; 6.2 m/s) gusting to 25 MPH (22 knots; 11.3 m/s)
Visibility:10 or more sm (16+ km)
Ceiling:at least 12,000 feet AGL
Clouds:sky clear below 12,000 feet AGL
QC Flag:automated observation with no human augmentation; SOME DATA ABOVE MAY BE INACCURATE!!!"$" is an indication the sensor requires maintenance.
Text:KHSE 231051Z AUTO 30010G20KT 10SM CLR 08/M02 A3007 RMK AO2 SLP181 T00831017 $
Temperature: 8.3°C ( 47°F)
Dewpoint: -1.7°C ( 29°F) [RH = 49%]
Pressure (altimeter):30.07 inches Hg (1018.4 mb) [Sea level pressure: 1018.1 mb]
Winds:from the WNW (300 degrees) at 12 MPH (10 knots; 5.1 m/s) gusting to 23 MPH (20 knots; 10.3 m/s)
Visibility:10 or more sm (16+ km)
Ceiling:at least 12,000 feet AGL
Clouds:sky clear below 12,000 feet AGL
QC Flag:automated observation with no human augmentation; SOME DATA ABOVE MAY BE INACCURATE!!!"$" is an indication the sensor requires maintenance.
Text:KHSE 230951Z AUTO 31011G19KT 10SM CLR 09/M02 A3004 RMK AO2 PK WND 32027/0937 SLP173 T00891022 $
Temperature: 8.9°C ( 48°F)
Dewpoint: -2.2°C ( 28°F) [RH = 46%]
Pressure (altimeter):30.04 inches Hg (1017.4 mb) [Sea level pressure: 1017.3 mb]
Winds:from the NW (310 degrees) at 13 MPH (11 knots; 5.7 m/s) gusting to 22 MPH (19 knots; 9.8 m/s)
Visibility:10 or more sm (16+ km)
Ceiling:at least 12,000 feet AGL
Clouds:sky clear below 12,000 feet AGL
QC Flag:automated observation with no human augmentation; SOME DATA ABOVE MAY BE INACCURATE!!!"$" is an indication the sensor requires maintenance.
Text:KHSE 230851Z AUTO 31012G21KT 10SM CLR 08/M02 A3002 RMK AO2 SLP164 T00831017 53015 $
Temperature: 8.3°C ( 47°F)
Dewpoint: -1.7°C ( 29°F) [RH = 49%]
Pressure (altimeter):30.02 inches Hg (1016.7 mb) [Sea level pressure: 1016.4 mb]
Winds:from the NW (310 degrees) at 14 MPH (12 knots; 6.2 m/s) gusting to 24 MPH (21 knots; 10.8 m/s)
Visibility:10 or more sm (16+ km)
Ceiling:at least 12,000 feet AGL
Clouds:sky clear below 12,000 feet AGL
QC Flag:automated observation with no human augmentation; SOME DATA ABOVE MAY BE INACCURATE!!!"$" is an indication the sensor requires maintenance.
Text:KHSE 230751Z AUTO 31012G20KT 10SM CLR 09/M01 A3000 RMK AO2 PK WND 33029/0656 SLP158 T00891011 $
Temperature: 8.9°C ( 48°F)
Dewpoint: -1.1°C ( 30°F) [RH = 49%]
Pressure (altimeter):30.00 inches Hg (1016.0 mb) [Sea level pressure: 1015.8 mb]
Winds:from the NW (310 degrees) at 14 MPH (12 knots; 6.2 m/s) gusting to 23 MPH (20 knots; 10.3 m/s)
Visibility:10 or more sm (16+ km)
Ceiling:at least 12,000 feet AGL
Clouds:sky clear below 12,000 feet AGL
QC Flag:automated observation with no human augmentation; SOME DATA ABOVE MAY BE INACCURATE!!!"$" is an indication the sensor requires maintenance.
Text:KHSE 230651Z AUTO 31013G22KT 10SM CLR 09/M02 A2998 RMK AO2 SLP152 T00941017 $
Temperature: 9.4°C ( 49°F)
Dewpoint: -1.7°C ( 29°F) [RH = 46%]
Pressure (altimeter):29.98 inches Hg (1015.3 mb) [Sea level pressure: 1015.2 mb]
Winds:from the NW (310 degrees) at 15 MPH (13 knots; 6.7 m/s) gusting to 25 MPH (22 knots; 11.3 m/s)
Visibility:10 or more sm (16+ km)
Ceiling:at least 12,000 feet AGL
Clouds:sky clear below 12,000 feet AGL
QC Flag:automated observation with no human augmentation; SOME DATA ABOVE MAY BE INACCURATE!!!"$" is an indication the sensor requires maintenance.
Text:KHSE 230551Z AUTO 31009G17KT 10SM CLR 10/00 A2997 RMK AO2 SLP149 6//// T01000000 10139 20100 51026 $
Temperature: 10.0°C ( 50°F)
Dewpoint: 0.0°C ( 32°F) [RH = 50%]
Pressure (altimeter):29.97 inches Hg (1015.0 mb) [Sea level pressure: 1014.9 mb]
Winds:from the NW (310 degrees) at 10 MPH (9 knots; 4.6 m/s) gusting to 20 MPH (17 knots; 8.7 m/s)
Visibility:10 or more sm (16+ km)
Ceiling:at least 12,000 feet AGL
Clouds:sky clear below 12,000 feet AGL
QC Flag:automated observation with no human augmentation; SOME DATA ABOVE MAY BE INACCURATE!!!"$" is an indication the sensor requires maintenance.
Text:KHSE 230451Z AUTO 32008G16KT 300V360 10SM SCT100 11/03 A2996 RMK AO2 SLP143 T01060028 401610100 $
Temperature: 10.6°C ( 51°F)
Dewpoint: 2.8°C ( 37°F) [RH = 58%]
Pressure (altimeter):29.96 inches Hg (1014.6 mb) [Sea level pressure: 1014.3 mb]
Winds:from the NW (320 degrees) at 9 MPH (8 knots; 4.1 m/s) gusting to 18 MPH (16 knots; 8.2 m/s)
Visibility:10 or more sm (16+ km)
Ceiling:at least 12,000 feet AGL
Clouds: scattered clouds at 10000 feet AGL
QC Flag:automated observation with no human augmentation; SOME DATA ABOVE MAY BE INACCURATE!!!"$" is an indication the sensor requires maintenance.
Text:KHSE 230351Z AUTO 33009G17KT 10SM FEW090 SCT110 11/03 A2993 RMK AO2 SLP136 T01110033 PNO $
Temperature: 11.1°C ( 52°F)
Dewpoint: 3.3°C ( 38°F) [RH = 59%]
Pressure (altimeter):29.93 inches Hg (1013.6 mb) [Sea level pressure: 1013.6 mb]
Winds:from the NNW (330 degrees) at 10 MPH (9 knots; 4.6 m/s) gusting to 20 MPH (17 knots; 8.7 m/s)
Visibility:10 or more sm (16+ km)
Ceiling:at least 12,000 feet AGL
Clouds: few clouds at 9000 feet AGL, scattered clouds at 11000 feet AGL
QC Flag:automated observation with no human augmentation; SOME DATA ABOVE MAY BE INACCURATE!!!"$" is an indication the sensor requires maintenance.
Text:KHSE 230251Z AUTO 33011G24KT 10SM BKN090 OVC110 13/05 A2989 RMK AO2 RAE18 PRESRR SLP123 P0000 60000 T01330050 53044 $
Temperature: 13.3°C ( 56°F)
Dewpoint: 5.0°C ( 41°F) [RH = 57%]
Pressure (altimeter):29.89 inches Hg (1012.3 mb) [Sea level pressure: 1012.3 mb]
Winds:from the NNW (330 degrees) at 13 MPH (11 knots; 5.7 m/s) gusting to 28 MPH (24 knots; 12.3 m/s)
Visibility:10 or more sm (16+ km)
Ceiling:9000 feet AGL
Clouds: broken clouds at 9000 feet AGL, overcast cloud deck at 11000 feet AGL
QC Flag:automated observation with no human augmentation; SOME DATA ABOVE MAY BE INACCURATE!!!"$" is an indication the sensor requires maintenance.
Text:KHSE 230151Z AUTO 33008G17KT 300V010 10SM -RA OVC070 14/07 A2985 RMK AO2 RAB48 PRESRR SLP108 P0000 T01390072
Temperature: 13.9°C ( 57°F)
Dewpoint: 7.2°C ( 45°F) [RH = 64%]
Pressure (altimeter):29.85 inches Hg (1010.9 mb) [Sea level pressure: 1010.8 mb]
Winds:from the NNW (330 degrees) at 9 MPH (8 knots; 4.1 m/s) gusting to 20 MPH (17 knots; 8.7 m/s)
Visibility:10 or more sm (16+ km)
Ceiling:7000 feet AGL
Clouds: overcast cloud deck at 7000 feet AGL
Weather:-RA (light rain)
QC Flag:automated observation with no human augmentation
Text:KHSE 230051Z AUTO 27007KT 10SM FEW080 OVC100 14/07 A2980 RMK AO2 SLP091 T01390072
Temperature: 13.9°C ( 57°F)
Dewpoint: 7.2°C ( 45°F) [RH = 64%]
Pressure (altimeter):29.80 inches Hg (1009.2 mb) [Sea level pressure: 1009.1 mb]
Winds:from the W (270 degrees) at 8 MPH (7 knots; 3.6 m/s)
Visibility:10 or more sm (16+ km)
Ceiling:10000 feet AGL
Clouds: few clouds at 8000 feet AGL, overcast cloud deck at 10000 feet AGL
QC Flag:automated observation with no human augmentation
Text:KHSE 222351Z AUTO 28006KT 10SM CLR 13/07 A2976 RMK AO2 SLP079 T01330067 10161 20133 53020
Temperature: 13.3°C ( 56°F)
Dewpoint: 6.7°C ( 44°F) [RH = 64%]
Pressure (altimeter):29.76 inches Hg (1007.9 mb) [Sea level pressure: 1007.9 mb]
Winds:from the W (280 degrees) at 7 MPH (6 knots; 3.1 m/s)
Visibility:10 or more sm (16+ km)
Ceiling:at least 12,000 feet AGL
Clouds:sky clear below 12,000 feet AGL
QC Flag:automated observation with no human augmentation
Text:KHSE 222251Z AUTO 27007KT 10SM CLR 14/07 A2975 RMK AO2 SLP073 T01390072
Temperature: 13.9°C ( 57°F)
Dewpoint: 7.2°C ( 45°F) [RH = 64%]
Pressure (altimeter):29.75 inches Hg (1007.5 mb) [Sea level pressure: 1007.3 mb]
Winds:from the W (270 degrees) at 8 MPH (7 knots; 3.6 m/s)
Visibility:10 or more sm (16+ km)
Ceiling:at least 12,000 feet AGL
Clouds:sky clear below 12,000 feet AGL
QC Flag:automated observation with no human augmentation
Text:KHSE 222151Z AUTO 27009G17KT 10SM CLR 16/06 A2972 RMK AO2 SLP063 T01560056
Temperature: 15.6°C ( 60°F)
Dewpoint: 5.6°C ( 42°F) [RH = 51%]
Pressure (altimeter):29.72 inches Hg (1006.5 mb) [Sea level pressure: 1006.3 mb]
Winds:from the W (270 degrees) at 10 MPH (9 knots; 4.6 m/s) gusting to 20 MPH (17 knots; 8.7 m/s)
Visibility:10 or more sm (16+ km)
Ceiling:at least 12,000 feet AGL
Clouds:sky clear below 12,000 feet AGL
QC Flag:automated observation with no human augmentation
Text:KHSE 222051Z AUTO 26008G18KT 10SM CLR 16/05 A2971 RMK AO2 SLP059 T01610050 55009
Temperature: 16.1°C ( 61°F)
Dewpoint: 5.0°C ( 41°F) [RH = 48%]
Pressure (altimeter):29.71 inches Hg (1006.2 mb) [Sea level pressure: 1005.9 mb]
Winds:from the W (260 degrees) at 9 MPH (8 knots; 4.1 m/s) gusting to 21 MPH (18 knots; 9.3 m/s)
Visibility:10 or more sm (16+ km)
Ceiling:at least 12,000 feet AGL
Clouds:sky clear below 12,000 feet AGL
QC Flag:automated observation with no human augmentation
Text:KHSE 221951Z AUTO 26013G21KT 10SM CLR 16/04 A2970 RMK AO2 SLP057 T01610039
Temperature: 16.1°C ( 61°F)
Dewpoint: 3.9°C ( 39°F) [RH = 44%]
Pressure (altimeter):29.70 inches Hg (1005.8 mb) [Sea level pressure: 1005.7 mb]
Winds:from the W (260 degrees) at 15 MPH (13 knots; 6.7 m/s) gusting to 24 MPH (21 knots; 10.8 m/s)
Visibility:10 or more sm (16+ km)
Ceiling:at least 12,000 feet AGL
Clouds:sky clear below 12,000 feet AGL
QC Flag:automated observation with no human augmentation
Text:KHSE 221851Z AUTO 27010G21KT 10SM FEW055 16/05 A2972 RMK AO2 SLP064 T01610050
Temperature: 16.1°C ( 61°F)
Dewpoint: 5.0°C ( 41°F) [RH = 48%]
Pressure (altimeter):29.72 inches Hg (1006.5 mb) [Sea level pressure: 1006.4 mb]
Winds:from the W (270 degrees) at 12 MPH (10 knots; 5.1 m/s) gusting to 24 MPH (21 knots; 10.8 m/s)
Visibility:10 or more sm (16+ km)
Ceiling:at least 12,000 feet AGL
Clouds: few clouds at 5500 feet AGL
QC Flag:automated observation with no human augmentation
Text:KHSE 221751Z AUTO 28013G22KT 10SM CLR 16/05 A2973 RMK AO2 SLP067 T01560050 10156 20106 58008
Temperature: 15.6°C ( 60°F)
Dewpoint: 5.0°C ( 41°F) [RH = 49%]
Pressure (altimeter):29.73 inches Hg (1006.9 mb) [Sea level pressure: 1006.7 mb]
Winds:from the W (280 degrees) at 15 MPH (13 knots; 6.7 m/s) gusting to 25 MPH (22 knots; 11.3 m/s)
Visibility:10 or more sm (16+ km)
Ceiling:at least 12,000 feet AGL
Clouds:sky clear below 12,000 feet AGL
QC Flag:automated observation with no human augmentation
Text:KHSE 221651Z AUTO 28012G22KT 10SM CLR 15/06 A2974 RMK AO2 SLP072 T01500056
Temperature: 15.0°C ( 59°F)
Dewpoint: 5.6°C ( 42°F) [RH = 53%]
Pressure (altimeter):29.74 inches Hg (1007.2 mb) [Sea level pressure: 1007.2 mb]
Winds:from the W (280 degrees) at 14 MPH (12 knots; 6.2 m/s) gusting to 25 MPH (22 knots; 11.3 m/s)
Visibility:10 or more sm (16+ km)
Ceiling:at least 12,000 feet AGL
Clouds:sky clear below 12,000 feet AGL
QC Flag:automated observation with no human augmentation
Text:KHSE 221551Z AUTO 28010G20KT 10SM CLR 14/07 A2975 RMK AO2 SLP074 T01440067
Temperature: 14.4°C ( 58°F)
Dewpoint: 6.7°C ( 44°F) [RH = 60%]
Pressure (altimeter):29.75 inches Hg (1007.5 mb) [Sea level pressure: 1007.4 mb]
Winds:from the W (280 degrees) at 12 MPH (10 knots; 5.1 m/s) gusting to 23 MPH (20 knots; 10.3 m/s)
Visibility:10 or more sm (16+ km)
Ceiling:at least 12,000 feet AGL
Clouds:sky clear below 12,000 feet AGL
QC Flag:automated observation with no human augmentation
Text:KHSE 221451Z AUTO 28011G20KT 10SM CLR 13/07 A2975 RMK AO2 SLP075 T01330067 51015
Temperature: 13.3°C ( 56°F)
Dewpoint: 6.7°C ( 44°F) [RH = 64%]
Pressure (altimeter):29.75 inches Hg (1007.5 mb) [Sea level pressure: 1007.5 mb]
Winds:from the W (280 degrees) at 13 MPH (11 knots; 5.7 m/s) gusting to 23 MPH (20 knots; 10.3 m/s)
Visibility:10 or more sm (16+ km)
Ceiling:at least 12,000 feet AGL
Clouds:sky clear below 12,000 feet AGL
QC Flag:automated observation with no human augmentation
Text:KHSE 221351Z AUTO 28011G19KT 10SM CLR 12/07 A2975 RMK AO2 SLP072 T01220067
Temperature: 12.2°C ( 54°F)
Dewpoint: 6.7°C ( 44°F) [RH = 69%]
Pressure (altimeter):29.75 inches Hg (1007.5 mb) [Sea level pressure: 1007.2 mb]
Winds:from the W (280 degrees) at 13 MPH (11 knots; 5.7 m/s) gusting to 22 MPH (19 knots; 9.8 m/s)
Visibility:10 or more sm (16+ km)
Ceiling:at least 12,000 feet AGL
Clouds:sky clear below 12,000 feet AGL
QC Flag:automated observation with no human augmentation
Text:KHSE 221251Z AUTO 29012G18KT 10SM CLR 12/06 A2973 RMK AO2 SLP068 T01170056
Temperature: 11.7°C ( 53°F)
Dewpoint: 5.6°C ( 42°F) [RH = 66%]
Pressure (altimeter):29.73 inches Hg (1006.9 mb) [Sea level pressure: 1006.8 mb]
Winds:from the WNW (290 degrees) at 14 MPH (12 knots; 6.2 m/s) gusting to 21 MPH (18 knots; 9.3 m/s)
Visibility:10 or more sm (16+ km)
Ceiling:at least 12,000 feet AGL
Clouds:sky clear below 12,000 feet AGL
QC Flag:automated observation with no human augmentation
Text:KHSE 221151Z AUTO 29009G20KT 10SM CLR 11/06 A2971 RMK AO2 SLP060 70062 T01060056 10122 20100 53019
Temperature: 10.6°C ( 51°F)
Dewpoint: 5.6°C ( 42°F) [RH = 71%]
Pressure (altimeter):29.71 inches Hg (1006.2 mb) [Sea level pressure: 1006.0 mb]
Winds:from the WNW (290 degrees) at 10 MPH (9 knots; 4.6 m/s) gusting to 23 MPH (20 knots; 10.3 m/s)
Visibility:10 or more sm (16+ km)
Ceiling:at least 12,000 feet AGL
Clouds:sky clear below 12,000 feet AGL
QC Flag:automated observation with no human augmentation
Text:KHSE 221051Z AUTO 30011G22KT 10SM CLR 10/06 A2968 RMK AO2 SLP052 T01000056
Temperature: 10.0°C ( 50°F)
Dewpoint: 5.6°C ( 42°F) [RH = 74%]
Pressure (altimeter):29.68 inches Hg (1005.2 mb) [Sea level pressure: 1005.2 mb]
Winds:from the WNW (300 degrees) at 13 MPH (11 knots; 5.7 m/s) gusting to 25 MPH (22 knots; 11.3 m/s)
Visibility:10 or more sm (16+ km)
Ceiling:at least 12,000 feet AGL
Clouds:sky clear below 12,000 feet AGL
QC Flag:automated observation with no human augmentation
Text:KHSE 220951Z AUTO 29012G23KT 10SM CLR 11/06 A2967 RMK AO2 PK WND 30026/0914 SLP047 T01060056
Temperature: 10.6°C ( 51°F)
Dewpoint: 5.6°C ( 42°F) [RH = 71%]
Pressure (altimeter):29.67 inches Hg (1004.8 mb) [Sea level pressure: 1004.7 mb]
Winds:from the WNW (290 degrees) at 14 MPH (12 knots; 6.2 m/s) gusting to 26 MPH (23 knots; 11.8 m/s)
Visibility:10 or more sm (16+ km)
Ceiling:at least 12,000 feet AGL
Clouds:sky clear below 12,000 feet AGL
QC Flag:automated observation with no human augmentation
Text:KHSE 220851Z AUTO 29013G23KT 10SM CLR 11/07 A2965 RMK AO2 PK WND 28027/0809 SLP041 T01110067 58011
Temperature: 11.1°C ( 52°F)
Dewpoint: 6.7°C ( 44°F) [RH = 74%]
Pressure (altimeter):29.65 inches Hg (1004.1 mb) [Sea level pressure: 1004.1 mb]
Winds:from the WNW (290 degrees) at 15 MPH (13 knots; 6.7 m/s) gusting to 26 MPH (23 knots; 11.8 m/s)
Visibility:10 or more sm (16+ km)
Ceiling:at least 12,000 feet AGL
Clouds:sky clear below 12,000 feet AGL
QC Flag:automated observation with no human augmentation
Text:KHSE 220751Z AUTO 30015G24KT 10SM CLR 12/07 A2966 RMK AO2 SLP043 T01170072
Temperature: 11.7°C ( 53°F)
Dewpoint: 7.2°C ( 45°F) [RH = 74%]
Pressure (altimeter):29.66 inches Hg (1004.5 mb) [Sea level pressure: 1004.3 mb]
Winds:from the WNW (300 degrees) at 17 MPH (15 knots; 7.7 m/s) gusting to 28 MPH (24 knots; 12.3 m/s)
Visibility:10 or more sm (16+ km)
Ceiling:at least 12,000 feet AGL
Clouds:sky clear below 12,000 feet AGL
QC Flag:automated observation with no human augmentation
Text:KHSE 220651Z AUTO 28012G20KT 10SM CLR 12/08 A2969 RMK AO2 SLP052 T01220083
Temperature: 12.2°C ( 54°F)
Dewpoint: 8.3°C ( 47°F) [RH = 77%]
Pressure (altimeter):29.69 inches Hg (1005.5 mb) [Sea level pressure: 1005.2 mb]
Winds:from the W (280 degrees) at 14 MPH (12 knots; 6.2 m/s) gusting to 23 MPH (20 knots; 10.3 m/s)
Visibility:10 or more sm (16+ km)
Ceiling:at least 12,000 feet AGL
Clouds:sky clear below 12,000 feet AGL
QC Flag:automated observation with no human augmentation
Text:KHSE 220551Z AUTO 27007KT 240V310 10SM CLR 12/08 A2968 RMK AO2 SLP052 T01220083 10128 20117 58012
Temperature: 12.2°C ( 54°F)
Dewpoint: 8.3°C ( 47°F) [RH = 77%]
Pressure (altimeter):29.68 inches Hg (1005.2 mb) [Sea level pressure: 1005.2 mb]
Winds:from the W (270 degrees) at 8 MPH (7 knots; 3.6 m/s)
Visibility:10 or more sm (16+ km)
Ceiling:at least 12,000 feet AGL
Clouds:sky clear below 12,000 feet AGL
QC Flag:automated observation with no human augmentation
Text:KHSE 220451Z AUTO 25005KT 10SM SCT085 12/08 A2969 RMK AO2 SLP055 T01170078 401720117
Temperature: 11.7°C ( 53°F)
Dewpoint: 7.8°C ( 46°F) [RH = 77%]
Pressure (altimeter):29.69 inches Hg (1005.5 mb) [Sea level pressure: 1005.5 mb]
Winds:from the WSW (250 degrees) at 6 MPH (5 knots; 2.6 m/s)
Visibility:10 or more sm (16+ km)
Ceiling:at least 12,000 feet AGL
Clouds: scattered clouds at 8500 feet AGL
QC Flag:automated observation with no human augmentation
Text:KHSE 220351Z AUTO 27007KT 10SM BKN075 BKN085 BKN100 12/07 A2971 RMK AO2 SLP061 T01220072
Temperature: 12.2°C ( 54°F)
Dewpoint: 7.2°C ( 45°F) [RH = 71%]
Pressure (altimeter):29.71 inches Hg (1006.2 mb) [Sea level pressure: 1006.1 mb]
Winds:from the W (270 degrees) at 8 MPH (7 knots; 3.6 m/s)
Visibility:10 or more sm (16+ km)
Ceiling:7500 feet AGL
Clouds: broken clouds at 7500 feet AGL, broken clouds at 8500 feet AGL, broken clouds at 10000 feet AGL
QC Flag:automated observation with no human augmentation
Text:KHSE 220251Z AUTO 27006KT 10SM CLR 12/08 A2972 RMK AO2 SLP063 T01170083 50003
Temperature: 11.7°C ( 53°F)
Dewpoint: 8.3°C ( 47°F) [RH = 80%]
Pressure (altimeter):29.72 inches Hg (1006.5 mb) [Sea level pressure: 1006.3 mb]
Winds:from the W (270 degrees) at 7 MPH (6 knots; 3.1 m/s)
Visibility:10 or more sm (16+ km)
Ceiling:at least 12,000 feet AGL
Clouds:sky clear below 12,000 feet AGL
QC Flag:automated observation with no human augmentation
Text:KHSE 220151Z AUTO 28008G16KT 10SM CLR 12/08 A2972 RMK AO2 SLP065 T01220078
Temperature: 12.2°C ( 54°F)
Dewpoint: 7.8°C ( 46°F) [RH = 74%]
Pressure (altimeter):29.72 inches Hg (1006.5 mb) [Sea level pressure: 1006.5 mb]
Winds:from the W (280 degrees) at 9 MPH (8 knots; 4.1 m/s) gusting to 18 MPH (16 knots; 8.2 m/s)
Visibility:10 or more sm (16+ km)
Ceiling:at least 12,000 feet AGL
Clouds:sky clear below 12,000 feet AGL
QC Flag:automated observation with no human augmentation